createdAt,value
2019-02-16T00:01:07.185Z,77.04
2019-02-16T00:03:38.801Z,76.20
2019-02-16T00:06:10.122Z,76.84
2019-02-16T00:08:41.400Z,77.24
2019-02-16T00:11:12.717Z,76.62
2019-02-16T00:13:44.319Z,76.89
2019-02-16T00:18:45.447Z,76.68
2019-02-16T00:21:16.765Z,76.25
2019-02-16T00:23:48.396Z,77.14
2019-02-16T00:26:19.822Z,77.71
2019-02-16T00:28:51.508Z,77.37
2019-02-16T00:31:23.062Z,77.01
2019-02-16T00:33:54.418Z,77.28
2019-02-16T00:36:26.515Z,76.79
2019-02-16T00:38:57.844Z,77.14
2019-02-16T00:41:29.758Z,77.11
2019-02-16T00:44:02.381Z,77.50
2019-02-16T00:46:33.661Z,77.45
2019-02-16T00:49:05.987Z,77.56
2019-02-16T00:51:37.970Z,77.74
2019-02-16T00:54:09.286Z,77.93
2019-02-16T00:56:40.968Z,77.44
2019-02-16T00:59:12.275Z,78.28
2019-02-16T01:01:45.523Z,78.70
2019-02-16T01:04:16.888Z,78.33
2019-02-16T01:06:48.235Z,79.06
2019-02-16T01:09:19.530Z,78.75
2019-02-16T01:11:51.180Z,79.80
2019-02-16T01:14:22.760Z,80.58
2019-02-16T01:16:54.131Z,78.96
2019-02-16T01:19:26.244Z,78.10
2019-02-16T01:21:57.536Z,78.54
2019-02-16T01:24:29.114Z,78.15
2019-02-16T01:27:00.782Z,77.86
2019-02-16T01:29:32.149Z,77.97
2019-02-16T01:32:04.096Z,78.24
2019-02-16T01:34:35.470Z,78.04
2019-02-16T01:37:07.111Z,78.08
2019-02-16T01:39:38.394Z,77.89
2019-02-16T01:42:09.734Z,77.86
2019-02-16T01:44:41.043Z,77.87
2019-02-16T01:47:12.971Z,77.97
2019-02-16T01:49:44.904Z,78.48
2019-02-16T01:52:16.192Z,78.93
2019-02-16T01:54:48.516Z,78.36
2019-02-16T01:57:21.514Z,78.43
2019-02-16T01:59:53.206Z,79.81
2019-02-16T02:02:25.273Z,79.77
2019-02-16T02:04:56.709Z,79.20
2019-02-16T02:07:27.973Z,78.48
2019-02-16T02:09:59.254Z,78.74
2019-02-16T02:12:30.565Z,78.76
2019-02-16T02:15:02.138Z,79.75
2019-02-16T02:17:33.419Z,79.73
2019-02-16T02:20:04.831Z,79.46
2019-02-16T02:22:36.498Z,78.77
2019-02-16T02:25:10.007Z,78.63
2019-02-16T02:27:41.711Z,79.15
2019-02-16T02:30:12.985Z,80.46
2019-02-16T02:32:44.607Z,81.96
2019-02-16T02:35:15.995Z,81.00
2019-02-16T02:37:47.297Z,79.64
2019-02-16T02:40:19.224Z,79.49
2019-02-16T02:42:50.916Z,79.50
2019-02-16T02:45:22.621Z,79.25
2019-02-16T02:47:53.885Z,81.32
2019-02-16T02:50:25.540Z,79.88
2019-02-16T02:52:57.469Z,79.89
2019-02-16T02:55:28.753Z,81.21
2019-02-16T02:58:00.809Z,80.27
2019-02-16T03:00:33.655Z,79.62
2019-02-16T03:03:05.254Z,79.27
2019-02-16T03:05:36.598Z,79.27
2019-02-16T03:08:08.231Z,79.54
2019-02-16T03:10:39.845Z,79.71
2019-02-16T03:13:11.302Z,79.53
2019-02-16T03:15:43.235Z,80.46
2019-02-16T03:18:14.520Z,80.93
2019-02-16T03:20:46.184Z,80.83
2019-02-16T03:23:22.417Z,79.68
2019-02-16T03:26:28.969Z,80.22
2019-02-16T03:29:12.732Z,80.76
2019-02-16T03:33:06.590Z,79.91
2019-02-16T03:36:17.831Z,79.56
2019-02-16T03:39:05.951Z,81.99
2019-02-16T03:41:37.819Z,80.97
2019-02-16T03:44:09.371Z,80.42
2019-02-16T03:46:40.696Z,80.80
2019-02-16T03:49:11.966Z,80.45
2019-02-16T03:51:43.255Z,80.35
2019-02-16T03:54:14.925Z,80.24
2019-02-16T03:56:47.280Z,80.08
2019-02-16T03:59:18.838Z,79.95
2019-02-16T04:01:50.861Z,80.16
2019-02-16T04:04:22.507Z,81.73
2019-02-16T04:06:53.879Z,81.30
2019-02-16T04:09:25.200Z,80.19
2019-02-16T04:11:57.172Z,80.40
2019-02-16T04:14:28.808Z,81.15
2019-02-16T04:17:00.772Z,81.18
2019-02-16T04:19:32.045Z,80.66
2019-02-16T04:22:03.921Z,79.71
2019-02-16T04:24:36.277Z,79.79
2019-02-16T04:27:07.598Z,80.08
2019-02-16T04:29:39.192Z,80.63
2019-02-16T04:32:10.806Z,80.75
2019-02-16T04:34:42.289Z,79.95
2019-02-16T04:37:13.955Z,80.31
2019-02-16T04:39:45.291Z,80.22
2019-02-16T04:42:16.919Z,80.54
2019-02-16T04:44:48.552Z,80.76
2019-02-16T04:47:20.536Z,81.27
2019-02-16T04:49:51.839Z,81.21
2019-02-16T04:52:23.161Z,80.61
2019-02-16T04:54:54.588Z,82.29
2019-02-16T04:57:26.203Z,83.06
2019-02-16T04:59:57.784Z,83.74
2019-02-16T05:02:29.101Z,83.77
2019-02-16T05:05:00.730Z,82.58
2019-02-16T05:07:32.115Z,81.75
2019-02-16T05:10:03.454Z,81.67
2019-02-16T05:12:34.987Z,84.61
2019-02-16T05:15:06.990Z,85.41
2019-02-16T05:17:38.331Z,85.25
2019-02-16T05:20:09.784Z,84.03
2019-02-16T05:22:44.617Z,83.81
2019-02-16T05:25:15.677Z,83.36
2019-02-16T05:27:47.319Z,82.53
2019-02-16T05:30:18.903Z,83.55
2019-02-16T05:32:50.892Z,83.36
2019-02-16T05:35:22.479Z,83.47
2019-02-16T05:37:54.123Z,81.76
2019-02-16T05:40:25.793Z,81.76
2019-02-16T05:42:57.375Z,81.37
2019-02-16T05:45:29.133Z,81.18
2019-02-16T05:48:00.509Z,81.15
2019-02-16T05:50:31.853Z,80.86
2019-02-16T05:53:03.813Z,81.35
2019-02-16T05:55:35.150Z,81.35
2019-02-16T05:58:06.456Z,80.99
2019-02-16T06:00:37.718Z,81.46
2019-02-16T06:03:12.198Z,81.79
2019-02-16T06:05:43.830Z,81.63
2019-02-16T06:08:15.110Z,81.70
2019-02-16T06:10:46.475Z,82.59
2019-02-16T06:13:17.750Z,83.63
2019-02-16T06:15:49.583Z,83.89
2019-02-16T06:18:20.916Z,82.22
2019-02-16T06:20:52.211Z,81.90
2019-02-16T06:23:23.810Z,81.92
2019-02-16T06:25:55.847Z,81.90
2019-02-16T06:28:27.479Z,81.39
2019-02-16T06:30:59.151Z,81.33
2019-02-16T06:33:31.103Z,82.17
2019-02-16T06:36:20.346Z,82.30
2019-02-16T06:38:52.074Z,82.34
2019-02-16T06:41:23.538Z,81.89
2019-02-16T06:43:55.964Z,81.80
2019-02-16T06:46:27.294Z,82.52
2019-02-16T06:48:58.903Z,81.99
2019-02-16T06:51:30.504Z,81.76
2019-02-16T06:54:02.152Z,81.66
2019-02-16T06:56:40.332Z,81.85
2019-02-16T06:59:12.089Z,82.16
2019-02-16T07:01:45.764Z,83.29
2019-02-16T07:04:17.010Z,83.02
2019-02-16T07:06:48.641Z,82.63
2019-02-16T07:09:19.958Z,82.21
2019-02-16T07:11:51.582Z,82.57
2019-02-16T07:14:23.521Z,82.54
2019-02-16T07:17:12.394Z,82.99
2019-02-16T07:19:49.714Z,82.71
2019-02-16T07:22:21.460Z,83.20
2019-02-16T07:24:52.842Z,84.16
2019-02-16T07:27:24.423Z,84.28
2019-02-16T07:29:55.895Z,83.92
2019-02-16T07:32:27.537Z,83.44
2019-02-16T07:34:58.797Z,80.43
2019-02-16T07:37:30.380Z,77.35
2019-02-16T07:40:03.494Z,73.70
2019-02-16T07:42:49.665Z,71.47
2019-02-16T07:45:45.020Z,69.43
2019-02-16T07:48:57.125Z,69.50
2019-02-16T07:51:56.271Z,68.44
2019-02-16T07:54:55.529Z,67.63
2019-02-16T07:57:38.410Z,66.25
2019-02-16T08:00:29.061Z,64.96
2019-02-16T08:03:07.290Z,64.20
2019-02-16T08:05:52.080Z,62.50
2019-02-16T08:08:46.088Z,61.19
2019-02-16T08:11:29.507Z,59.90
2019-02-16T08:14:22.748Z,59.11
2019-02-16T08:17:02.295Z,59.24
2019-02-16T08:20:07.904Z,56.83
2019-02-16T08:22:46.341Z,55.98
2019-02-16T08:25:42.841Z,55.28
2019-02-16T08:28:41.868Z,56.11
2019-02-16T08:31:21.691Z,53.75
2019-02-16T08:34:17.817Z,53.22
2019-02-16T08:37:08.035Z,51.20
2019-02-16T08:39:47.112Z,51.12
2019-02-16T08:42:43.210Z,50.67
2019-02-16T08:45:33.663Z,47.85
2019-02-16T08:48:14.199Z,47.19
2019-02-16T08:51:10.718Z,44.91
2019-02-16T08:53:51.498Z,45.17
2019-02-16T08:56:51.082Z,44.82
2019-02-16T08:59:41.907Z,44.85
2019-02-16T09:02:42.690Z,44.15
2019-02-16T09:05:23.115Z,41.62
2019-02-16T09:08:06.275Z,41.86
2019-02-16T09:11:05.985Z,39.02
2019-02-16T09:13:46.766Z,40.58
2019-02-16T09:16:38.464Z,42.47
2019-02-16T09:19:29.061Z,40.11
2019-02-16T09:22:13.469Z,38.53
2019-02-16T09:24:54.242Z,38.92
2019-02-16T09:27:40.901Z,37.45
2019-02-16T09:30:31.714Z,39.10
2019-02-16T09:33:27.955Z,36.71
2019-02-16T09:36:07.855Z,36.73
2019-02-16T09:39:01.473Z,38.99
2019-02-16T09:41:38.051Z,37.04
2019-02-16T09:44:28.579Z,37.77
2019-02-16T09:47:10.352Z,36.68
2019-02-16T09:49:50.805Z,36.17
2019-02-16T09:52:44.796Z,37.51
2019-02-16T09:55:38.189Z,33.89
2019-02-16T09:58:24.189Z,35.63
2019-02-16T10:01:17.141Z,34.95
2019-02-16T10:04:07.617Z,33.95
2019-02-16T10:07:03.718Z,35.83
2019-02-16T10:09:57.040Z,36.14
2019-02-16T10:12:46.256Z,36.14
2019-02-16T10:15:48.528Z,36.69
2019-02-16T10:18:44.677Z,35.06
2019-02-16T10:21:34.501Z,33.04
2019-02-16T10:24:24.695Z,34.67
2019-02-16T10:27:05.964Z,33.43
2019-02-16T10:29:55.529Z,33.92
2019-02-16T10:32:52.296Z,34.38
2019-02-16T10:35:57.725Z,32.27
2019-02-16T10:38:50.193Z,35.39
2019-02-16T10:41:33.278Z,34.11
2019-02-16T10:44:21.796Z,33.76
2019-02-16T10:47:10.418Z,32.57
2019-02-16T10:50:01.505Z,33.91
2019-02-16T10:52:52.351Z,33.28
2019-02-16T10:55:44.957Z,34.45
2019-02-16T10:58:30.506Z,33.20
2019-02-16T11:01:10.248Z,34.50
2019-02-16T11:04:15.643Z,31.36
2019-02-16T11:07:04.954Z,33.83
2019-02-16T11:09:53.202Z,33.87
2019-02-16T11:12:35.169Z,33.87
2019-02-16T11:15:27.332Z,35.02
2019-02-16T11:18:23.303Z,32.18
2019-02-16T11:21:28.989Z,31.71
2019-02-16T11:24:05.978Z,34.81
2019-02-16T11:27:11.724Z,34.58
2019-02-16T11:30:19.959Z,33.46
2019-02-16T11:33:02.023Z,35.34
2019-02-16T11:35:43.240Z,33.83
2019-02-16T11:38:32.044Z,34.54
2019-02-16T11:41:24.163Z,35.66
2019-02-16T11:44:17.471Z,34.31
2019-02-16T11:47:07.917Z,34.06
2019-02-16T11:49:58.241Z,34.04
2019-02-16T11:52:54.246Z,33.88
2019-02-16T11:55:47.462Z,32.12
2019-02-16T11:58:35.974Z,33.81
2019-02-16T12:01:24.530Z,32.43
2019-02-16T12:04:29.837Z,34.48
2019-02-16T12:07:18.691Z,35.00
2019-02-16T12:09:57.119Z,32.84
2019-02-16T12:12:50.535Z,34.94
2019-02-16T12:15:55.660Z,34.18
2019-02-16T12:18:40.991Z,33.76
2019-02-16T12:21:36.881Z,34.12
2019-02-16T12:24:33.249Z,33.95
2019-02-16T12:27:21.978Z,34.10
2019-02-16T12:30:01.321Z,33.04
2019-02-16T12:32:51.069Z,33.06
2019-02-16T12:35:37.474Z,34.25
2019-02-16T12:38:31.256Z,34.01
2019-02-16T12:41:21.802Z,33.72
2019-02-16T12:44:21.597Z,33.69
2019-02-16T12:47:21.385Z,32.98
2019-02-16T12:50:09.074Z,34.03
2019-02-16T12:52:59.271Z,34.75
2019-02-16T12:56:02.225Z,32.00
2019-02-16T12:58:54.673Z,32.68
2019-02-16T13:01:45.305Z,36.11
2019-02-16T13:04:34.484Z,36.23
2019-02-16T13:07:24.965Z,33.94
2019-02-16T13:10:15.347Z,34.38
2019-02-16T13:13:05.694Z,36.96
2019-02-16T13:16:10.729Z,37.73
2019-02-16T13:19:03.390Z,37.40
2019-02-16T13:21:54.483Z,39.13
2019-02-16T13:24:43.414Z,38.88
2019-02-16T13:27:31.596Z,36.62
2019-02-16T13:30:10.428Z,36.50
2019-02-16T13:33:08.269Z,36.63
2019-02-16T13:35:48.997Z,36.17
2019-02-16T13:38:37.926Z,35.97
2019-02-16T13:41:21.344Z,37.76
2019-02-16T13:44:11.873Z,37.29
2019-02-16T13:47:04.178Z,37.10
2019-02-16T13:49:54.377Z,37.28
2019-02-16T13:52:47.551Z,37.38
2019-02-16T13:55:36.227Z,40.69
2019-02-16T13:58:29.204Z,40.06
2019-02-16T14:01:08.179Z,39.07
2019-02-16T14:04:05.157Z,40.07
2019-02-16T14:06:50.303Z,40.55
2019-02-16T14:09:43.556Z,40.09
2019-02-16T14:12:36.559Z,40.71
2019-02-16T14:15:30.285Z,40.87
2019-02-16T14:18:01.600Z,42.55
2019-02-16T14:20:32.968Z,39.71
2019-02-16T14:23:04.579Z,40.48
2019-02-16T14:25:55.166Z,40.63
2019-02-16T14:28:26.457Z,41.16
2019-02-16T14:30:57.770Z,40.14
2019-02-16T14:33:29.416Z,42.41
2019-02-16T14:36:00.688Z,41.25
2019-02-16T14:38:46.090Z,42.10
2019-02-16T14:41:17.422Z,41.30
2019-02-16T14:43:49.752Z,39.80
2019-02-16T14:46:21.028Z,39.25
2019-02-16T14:48:52.345Z,39.86
2019-02-16T14:51:23.622Z,41.87
2019-02-16T14:53:57.448Z,42.37
2019-02-16T14:56:28.844Z,40.79
2019-02-16T14:59:00.117Z,40.01
2019-02-16T15:01:31.389Z,40.01
2019-02-16T15:04:03.053Z,40.24
2019-02-16T15:06:36.568Z,40.93
2019-02-16T15:09:08.488Z,41.02
2019-02-16T15:11:39.801Z,40.49
2019-02-16T15:14:11.113Z,41.56
2019-02-16T15:16:42.423Z,42.75
2019-02-16T15:19:13.767Z,40.78
2019-02-16T15:21:45.395Z,40.92
2019-02-16T15:24:16.989Z,42.43
2019-02-16T15:26:48.291Z,42.25
2019-02-16T15:29:19.908Z,41.31
2019-02-16T15:31:51.812Z,41.98
2019-02-16T15:34:23.928Z,41.90
2019-02-16T15:36:55.620Z,42.70
2019-02-16T15:39:26.908Z,42.53
2019-02-16T15:41:58.270Z,42.64
2019-02-16T15:44:29.897Z,42.56
2019-02-16T15:47:01.501Z,42.96
2019-02-16T15:49:33.229Z,44.17
2019-02-16T15:52:05.250Z,43.89
2019-02-16T15:54:36.615Z,43.54
2019-02-16T15:57:07.895Z,44.17
2019-02-16T15:59:39.182Z,43.80
2019-02-16T16:02:10.532Z,43.77
2019-02-16T16:04:41.820Z,44.24
2019-02-16T16:07:16.627Z,44.10
2019-02-16T16:10:12.508Z,44.20
2019-02-16T16:13:09.226Z,44.22
2019-02-16T16:16:05.100Z,44.76
2019-02-16T16:19:04.577Z,44.60
2019-02-16T16:21:51.780Z,45.21
2019-02-16T16:24:40.890Z,45.12
2019-02-16T16:27:21.510Z,45.48
2019-02-16T16:30:17.390Z,46.09
2019-02-16T16:33:06.232Z,45.51
2019-02-16T16:35:59.359Z,45.86
2019-02-16T16:38:40.290Z,46.47
2019-02-16T16:41:24.164Z,46.73
2019-02-16T16:44:11.888Z,47.09
2019-02-16T16:46:53.844Z,47.39
2019-02-16T16:49:42.465Z,47.60
2019-02-16T16:52:42.269Z,47.70
2019-02-16T16:55:32.548Z,47.92
2019-02-16T16:58:37.826Z,47.77
2019-02-16T17:01:37.141Z,48.12
2019-02-16T17:04:20.165Z,48.44
2019-02-16T17:07:03.909Z,48.48
2019-02-16T17:10:00.320Z,48.59
2019-02-16T17:12:54.346Z,49.07
2019-02-16T17:15:48.116Z,49.29
2019-02-16T17:18:37.307Z,49.50
2019-02-16T17:21:25.735Z,49.95
2019-02-16T17:24:18.876Z,49.94
2019-02-16T17:27:09.127Z,50.17
2019-02-16T17:29:57.994Z,50.64
2019-02-16T17:33:00.319Z,52.37
2019-02-16T17:35:49.258Z,53.66
2019-02-16T17:38:45.508Z,52.70
2019-02-16T17:41:36.134Z,52.91
2019-02-16T17:44:25.004Z,53.58
2019-02-16T17:47:18.283Z,54.38
2019-02-16T17:50:03.111Z,55.05
2019-02-16T17:53:06.351Z,54.15
2019-02-16T17:56:06.197Z,55.31
2019-02-16T17:59:02.175Z,56.81
2019-02-16T18:01:51.093Z,56.66
2019-02-16T18:04:50.516Z,55.71
2019-02-16T18:07:53.202Z,55.80
2019-02-16T18:10:52.330Z,55.46
2019-02-16T18:13:37.501Z,55.33
2019-02-16T18:16:32.309Z,55.81
2019-02-16T18:19:25.862Z,56.68
2019-02-16T18:22:25.153Z,56.24
2019-02-16T18:25:30.642Z,56.89
2019-02-16T18:28:26.597Z,56.63
2019-02-16T18:31:22.883Z,56.65
2019-02-16T18:34:10.393Z,56.13
2019-02-16T18:37:03.695Z,56.23
2019-02-16T18:39:57.738Z,55.77
2019-02-16T18:42:48.550Z,55.20
2019-02-16T18:45:37.310Z,55.55
2019-02-16T18:48:22.774Z,55.30
2019-02-16T18:54:38.974Z,54.92
2019-02-16T18:57:35.177Z,55.71
2019-02-16T19:00:29.756Z,58.40
2019-02-16T19:03:20.251Z,59.56
2019-02-16T19:06:02.072Z,60.42
2019-02-16T19:08:50.940Z,59.85
2019-02-16T19:11:50.427Z,60.72
2019-02-16T19:14:39.851Z,60.60
2019-02-16T19:17:30.069Z,61.41
2019-02-16T19:20:32.780Z,61.51
2019-02-16T19:23:21.696Z,60.56
2019-02-16T19:26:07.447Z,59.84
2019-02-16T19:29:12.800Z,59.97
2019-02-16T19:32:06.502Z,60.28
2019-02-16T19:34:53.465Z,59.94
2019-02-16T19:37:46.861Z,60.05
2019-02-16T19:40:37.138Z,60.30
2019-02-16T19:43:28.050Z,60.16
2019-02-16T19:46:14.519Z,60.24
2019-02-16T19:49:11.103Z,60.60
2019-02-16T19:52:01.744Z,60.65
2019-02-16T19:55:01.053Z,61.33
2019-02-16T19:57:50.307Z,61.61
2019-02-16T20:00:49.994Z,62.00
2019-02-16T20:03:33.553Z,62.98
2019-02-16T20:06:22.582Z,61.93
2019-02-16T20:09:13.222Z,62.14
2019-02-16T20:12:03.862Z,62.11
2019-02-16T20:15:06.211Z,61.81
2019-02-16T20:17:50.972Z,61.81
2019-02-16T20:20:29.757Z,62.14
2019-02-16T20:23:35.486Z,62.74
2019-02-16T20:26:31.834Z,62.39
2019-02-16T20:29:40.507Z,63.05
2019-02-16T20:32:43.372Z,64.09
2019-02-16T20:35:42.351Z,64.31
2019-02-16T20:38:32.590Z,64.89
2019-02-16T20:41:18.107Z,64.89
2019-02-16T20:44:08.353Z,65.14
2019-02-16T20:47:08.152Z,65.43
2019-02-16T20:49:58.722Z,65.26
2019-02-16T20:52:51.848Z,65.32
2019-02-16T20:55:30.214Z,66.03
2019-02-16T20:58:32.462Z,66.18
2019-02-16T21:01:38.301Z,66.51
2019-02-16T21:04:34.290Z,66.45
2019-02-16T21:07:23.347Z,65.93
2019-02-16T21:10:13.483Z,66.73
2019-02-16T21:12:55.969Z,67.17
2019-02-16T21:15:49.299Z,67.28
2019-02-16T21:18:46.835Z,67.27
2019-02-16T21:21:36.977Z,67.03
2019-02-16T21:24:27.174Z,67.15
2019-02-16T21:27:13.465Z,66.80
2019-02-16T21:29:59.318Z,66.78
2019-02-16T21:32:42.509Z,66.42
2019-02-16T21:35:36.430Z,66.52
2019-02-16T21:38:21.452Z,66.92
2019-02-16T21:41:03.595Z,66.79
2019-02-16T21:43:56.971Z,66.80
2019-02-16T21:46:44.127Z,66.92
2019-02-16T21:49:39.475Z,67.02
2019-02-16T21:52:35.880Z,67.09
2019-02-16T21:55:35.653Z,66.61
2019-02-16T21:58:29.032Z,66.75
2019-02-16T22:01:28.726Z,66.89
2019-02-16T22:04:17.309Z,67.12
2019-02-16T22:07:01.122Z,66.99
2019-02-16T22:10:00.325Z,67.30
2019-02-16T22:12:56.518Z,67.12
2019-02-16T22:15:28.992Z,67.07
2019-02-16T22:18:00.274Z,66.96
2019-02-16T22:20:31.587Z,67.79
2019-02-16T22:23:02.937Z,67.84
2019-02-16T22:25:35.182Z,68.55
2019-02-16T22:28:07.072Z,68.57
2019-02-16T22:30:42.459Z,67.98
2019-02-16T22:33:18.091Z,67.39
2019-02-16T22:35:49.487Z,68.37
2019-02-16T22:38:21.497Z,68.30
2019-02-16T22:40:52.890Z,68.42
2019-02-16T22:43:24.218Z,68.35
2019-02-16T22:45:56.060Z,68.77
2019-02-16T22:48:28.400Z,69.29
2019-02-16T22:51:00.739Z,68.96
2019-02-16T22:53:32.858Z,69.11
2019-02-16T22:56:04.406Z,69.36
2019-02-16T22:58:35.802Z,69.78
2019-02-16T23:01:07.598Z,69.23
2019-02-16T23:03:39.530Z,69.08
2019-02-16T23:06:11.250Z,69.52
2019-02-16T23:08:43.375Z,69.33
2019-02-16T23:11:15.334Z,69.18
2019-02-16T23:13:46.923Z,68.76
2019-02-16T23:16:18.988Z,68.90
2019-02-16T23:18:50.537Z,68.88
2019-02-16T23:21:22.601Z,69.33
2019-02-16T23:23:53.989Z,69.61
2019-02-16T23:26:25.287Z,69.31
2019-02-16T23:28:56.664Z,68.99
2019-02-16T23:31:28.272Z,68.86
2019-02-16T23:33:59.873Z,68.69
2019-02-16T23:36:31.857Z,68.55
2019-02-16T23:39:07.287Z,68.58
2019-02-16T23:41:39.814Z,68.92
2019-02-16T23:44:12.051Z,68.74
2019-02-16T23:46:44.063Z,69.10
2019-02-16T23:49:15.966Z,69.29
2019-02-16T23:51:47.287Z,68.98
2019-02-16T23:54:19.408Z,69.67
2019-02-16T23:56:50.796Z,69.91
2019-02-16T23:59:22.447Z,69.93
